createdAt,value
2019-04-14T00:00:01.152Z,1020.56
2019-04-14T00:01:00.206Z,1020.56
2019-04-14T00:02:00.990Z,1020.62
2019-04-14T00:03:00.112Z,1020.58
2019-04-14T00:04:00.809Z,1020.58
2019-04-14T00:05:00.045Z,1020.57
2019-04-14T00:06:00.525Z,1020.56
2019-04-14T00:06:59.974Z,1020.57
2019-04-14T00:08:00.315Z,1020.56
2019-04-14T00:09:01.009Z,1020.57
2019-04-14T00:10:00.721Z,1020.56
2019-04-14T00:10:59.884Z,1020.57
2019-04-14T00:12:01.140Z,1020.54
2019-04-14T00:13:00.051Z,1020.57
2019-04-14T00:14:00.912Z,1020.57
2019-04-14T00:14:59.874Z,1020.54
2019-04-14T00:16:00.659Z,1020.57
2019-04-14T00:16:59.709Z,1020.53
2019-04-14T00:17:59.600Z,1020.51
2019-04-14T00:18:59.855Z,1020.56
2019-04-14T00:19:59.536Z,1020.49
2019-04-14T00:20:59.863Z,1020.49
2019-04-14T00:21:59.467Z,1020.50
2019-04-14T00:22:59.785Z,1020.52
2019-04-14T00:23:59.405Z,1020.53
2019-04-14T00:24:59.734Z,1020.47
2019-04-14T00:26:00.821Z,1020.49
2019-04-14T00:26:59.586Z,1020.52
2019-04-14T00:27:59.259Z,1020.56
2019-04-14T00:29:00.098Z,1020.54
2019-04-14T00:29:59.194Z,1020.51
2019-04-14T00:30:59.886Z,1020.51
2019-04-14T00:31:59.124Z,1020.54
2019-04-14T00:32:59.474Z,1020.53
2019-04-14T00:33:59.059Z,1020.53
2019-04-14T00:34:59.387Z,1020.50
2019-04-14T00:36:00.142Z,1020.52
2019-04-14T00:36:58.956Z,1020.50
2019-04-14T00:37:59.786Z,1020.52
2019-04-14T00:38:58.895Z,1020.57
2019-04-14T00:39:59.747Z,1020.54
2019-04-14T00:40:58.918Z,1020.55
2019-04-14T00:42:01.775Z,1020.58
2019-04-14T00:42:58.756Z,1020.58
2019-04-14T00:43:59.229Z,1020.59
2019-04-14T00:44:58.689Z,1020.55
2019-04-14T00:46:00.932Z,1020.63
2019-04-14T00:46:58.618Z,1020.60
2019-04-14T00:48:05.623Z,1020.60
2019-04-14T00:48:58.550Z,1020.59
2019-04-14T00:49:59.410Z,1020.59
2019-04-14T00:50:58.483Z,1020.65
2019-04-14T00:51:59.300Z,1020.59
2019-04-14T00:52:58.869Z,1020.60
2019-04-14T00:53:58.408Z,1020.60
2019-04-14T00:54:58.715Z,1020.60
2019-04-14T00:55:58.332Z,1020.59
2019-04-14T00:56:58.518Z,1020.61
2019-04-14T00:57:59.455Z,1020.60
2019-04-14T00:58:58.294Z,1020.54
2019-04-14T00:59:59.436Z,1020.58
2019-04-14T01:00:58.142Z,1020.57
2019-04-14T01:01:59.162Z,1020.57
2019-04-14T01:02:58.075Z,1020.54
2019-04-14T01:03:59.053Z,1020.60
2019-04-14T01:04:58.005Z,1020.60
2019-04-14T01:05:59.028Z,1020.60
2019-04-14T01:06:57.958Z,1020.59
2019-04-14T01:07:58.770Z,1020.63
2019-04-14T01:08:57.873Z,1020.64
2019-04-14T01:09:57.844Z,1020.61
2019-04-14T01:10:58.337Z,1020.64
2019-04-14T01:11:57.800Z,1020.64
2019-04-14T01:12:58.190Z,1020.65
2019-04-14T01:13:57.724Z,1020.59
2019-04-14T01:14:58.226Z,1020.60
2019-04-14T01:16:05.235Z,1020.62
2019-04-14T01:16:58.004Z,1020.61
2019-04-14T01:17:57.575Z,1020.59
2019-04-14T01:18:58.060Z,1020.57
2019-04-14T01:19:57.497Z,1020.58
2019-04-14T01:20:57.834Z,1020.60
2019-04-14T01:21:57.452Z,1020.58
2019-04-14T01:22:57.484Z,1020.60
2019-04-14T01:23:57.363Z,1020.61
2019-04-14T01:24:57.577Z,1020.62
2019-04-14T01:25:58.382Z,1020.63
2019-04-14T01:26:57.286Z,1020.57
2019-04-14T01:27:58.200Z,1020.58
2019-04-14T01:28:57.195Z,1020.58
2019-04-14T01:29:58.151Z,1020.56
2019-04-14T01:30:57.131Z,1020.57
2019-04-14T01:31:57.941Z,1020.61
2019-04-14T01:32:57.060Z,1020.58
2019-04-14T01:33:57.616Z,1020.61
2019-04-14T01:34:57.068Z,1020.61
2019-04-14T01:35:57.398Z,1020.58
2019-04-14T01:36:56.955Z,1020.58
2019-04-14T01:37:57.266Z,1020.57
2019-04-14T01:38:58.063Z,1020.57
2019-04-14T01:39:56.822Z,1020.62
2019-04-14T01:40:57.727Z,1020.60
2019-04-14T01:41:56.780Z,1020.61
2019-04-14T01:42:57.317Z,1020.59
2019-04-14T01:43:56.692Z,1020.61
2019-04-14T01:44:57.078Z,1020.63
2019-04-14T01:46:05.190Z,1020.63
2019-04-14T01:46:56.661Z,1020.59
2019-04-14T01:47:57.547Z,1020.63
2019-04-14T01:48:56.520Z,1020.65
2019-04-14T01:49:57.365Z,1020.64
2019-04-14T01:50:56.447Z,1020.63
2019-04-14T01:51:57.138Z,1020.63
2019-04-14T01:52:56.785Z,1020.59
2019-04-14T01:53:57.394Z,1020.59
2019-04-14T01:54:56.316Z,1020.62
2019-04-14T01:55:57.005Z,1020.66
2019-04-14T01:56:56.246Z,1020.65
2019-04-14T01:57:56.850Z,1020.61
2019-04-14T01:58:56.185Z,1020.63
2019-04-14T01:59:56.762Z,1020.58
2019-04-14T02:00:56.122Z,1020.62
2019-04-14T02:01:56.505Z,1020.63
2019-04-14T02:02:56.098Z,1020.58
2019-04-14T02:03:56.295Z,1020.57
2019-04-14T02:04:55.985Z,1020.56
2019-04-14T02:05:56.160Z,1020.59
2019-04-14T02:06:57.046Z,1020.61
2019-04-14T02:07:55.942Z,1020.60
2019-04-14T02:08:56.862Z,1020.63
2019-04-14T02:09:55.811Z,1020.58
2019-04-14T02:10:56.585Z,1020.63
2019-04-14T02:11:55.747Z,1020.56
2019-04-14T02:12:56.376Z,1020.61
2019-04-14T02:13:55.677Z,1020.62
2019-04-14T02:14:56.287Z,1020.58
2019-04-14T02:15:55.607Z,1020.58
2019-04-14T02:16:59.075Z,1020.65
2019-04-14T02:17:56.608Z,1020.59
2019-04-14T02:18:56.870Z,1020.58
2019-04-14T02:19:56.665Z,1020.60
2019-04-14T02:20:55.761Z,1020.60
2019-04-14T02:21:56.333Z,1020.60
2019-04-14T02:23:01.812Z,1020.59
2019-04-14T02:23:56.127Z,1020.62
2019-04-14T02:24:55.302Z,1020.62
2019-04-14T02:25:55.749Z,1020.54
2019-04-14T02:26:55.234Z,1020.58
2019-04-14T02:27:55.829Z,1020.61
2019-04-14T02:28:55.188Z,1020.54
2019-04-14T02:29:55.899Z,1020.58
2019-04-14T02:31:06.372Z,1020.56
2019-04-14T02:32:25.175Z,1020.57
2019-04-14T02:33:25.990Z,1020.54
2019-04-14T02:34:25.582Z,1020.58
2019-04-14T02:35:22.786Z,1020.55
2019-04-14T02:37:36.976Z,1020.55
2019-04-14T02:38:40.856Z,1020.61
2019-04-14T02:39:21.095Z,1020.60
2019-04-14T02:40:29.209Z,1020.62
2019-04-14T02:41:35.714Z,1020.55
2019-04-14T02:43:27.697Z,1020.56
2019-04-14T02:44:25.675Z,1020.59
2019-04-14T02:46:22.077Z,1020.61
2019-04-14T02:47:47.266Z,1020.65
2019-04-14T02:49:19.518Z,1020.62
2019-04-14T02:50:18.267Z,1020.68
2019-04-14T02:52:19.686Z,1020.71
2019-04-14T02:54:22.956Z,1020.63
2019-04-14T02:55:15.790Z,1020.66
2019-04-14T02:56:21.742Z,1020.66
2019-04-14T02:59:19.709Z,1020.63
2019-04-14T03:00:24.638Z,1020.70
2019-04-14T03:01:27.632Z,1020.66
2019-04-14T03:03:27.844Z,1020.63
2019-04-14T03:04:19.765Z,1020.65
2019-04-14T03:05:21.854Z,1020.62
2019-04-14T03:06:18.091Z,1020.66
2019-04-14T03:07:21.954Z,1020.64
2019-04-14T03:09:34.758Z,1020.66
2019-04-14T03:11:22.196Z,1020.68
2019-04-14T03:12:24.529Z,1020.69
2019-04-14T03:13:21.006Z,1020.72
2019-04-14T03:14:25.427Z,1020.69
2019-04-14T03:15:27.959Z,1020.72
2019-04-14T03:16:23.551Z,1020.73
2019-04-14T03:19:32.786Z,1020.68
2019-04-14T03:21:19.735Z,1020.69
2019-04-14T03:22:33.163Z,1020.69
2019-04-14T03:23:24.982Z,1020.69
2019-04-14T03:24:21.728Z,1020.74
2019-04-14T03:25:06.163Z,1020.72
2019-04-14T03:26:22.963Z,1020.74
2019-04-14T03:27:26.598Z,1020.74
2019-04-14T03:28:17.540Z,1020.76
2019-04-14T03:29:20.968Z,1020.72
2019-04-14T03:30:46.106Z,1020.75
2019-04-14T03:31:39.403Z,1020.75
2019-04-14T03:32:39.101Z,1020.77
2019-04-14T03:34:34.534Z,1020.76
2019-04-14T03:35:51.881Z,1020.76
2019-04-14T03:37:07.928Z,1020.76
2019-04-14T03:37:42.375Z,1020.74
2019-04-14T03:39:15.264Z,1020.74
2019-04-14T03:40:21.815Z,1020.72
2019-04-14T03:41:25.738Z,1020.72
2019-04-14T03:42:21.500Z,1020.70
2019-04-14T03:43:24.444Z,1020.70
2019-04-14T03:44:18.619Z,1020.72
2019-04-14T03:45:26.122Z,1020.69
2019-04-14T03:46:33.286Z,1020.66
2019-04-14T03:47:19.534Z,1020.71
2019-04-14T03:50:21.209Z,1020.71
2019-04-14T03:51:32.745Z,1020.70
2019-04-14T03:54:07.934Z,1020.65
2019-04-14T03:55:10.121Z,1020.64
2019-04-14T03:55:58.743Z,1020.68
2019-04-14T03:56:53.641Z,1020.66
2019-04-14T03:57:52.156Z,1020.65
2019-04-14T03:58:53.187Z,1020.68
2019-04-14T03:59:52.159Z,1020.68
2019-04-14T04:00:53.210Z,1020.69
2019-04-14T04:01:52.369Z,1020.65
2019-04-14T04:02:51.993Z,1020.71
2019-04-14T04:03:52.182Z,1020.71
2019-04-14T04:04:51.948Z,1020.66
2019-04-14T04:05:52.190Z,1020.67
2019-04-14T04:06:53.051Z,1020.66
2019-04-14T04:07:51.820Z,1020.70
2019-04-14T04:08:52.911Z,1020.71
2019-04-14T04:09:51.903Z,1020.75
2019-04-14T04:10:51.712Z,1020.69
2019-04-14T04:11:52.021Z,1020.71
2019-04-14T04:12:51.652Z,1020.70
2019-04-14T04:13:51.999Z,1020.74
2019-04-14T04:14:51.598Z,1020.73
2019-04-14T04:15:52.004Z,1020.74
2019-04-14T04:16:51.505Z,1020.74
2019-04-14T04:17:51.709Z,1020.75
2019-04-14T04:19:00.049Z,1020.74
2019-04-14T04:19:51.479Z,1020.76
2019-04-14T04:20:52.426Z,1020.79
2019-04-14T04:21:51.341Z,1020.74
2019-04-14T04:22:52.266Z,1020.77
2019-04-14T04:23:51.290Z,1020.80
2019-04-14T04:24:52.134Z,1020.73
2019-04-14T04:25:51.240Z,1020.76
2019-04-14T04:26:51.786Z,1020.77
2019-04-14T04:27:51.146Z,1020.78
2019-04-14T04:28:51.797Z,1020.81
2019-04-14T04:29:51.069Z,1020.77
2019-04-14T04:30:51.617Z,1020.78
2019-04-14T04:31:51.003Z,1020.80
2019-04-14T04:32:51.545Z,1020.81
2019-04-14T04:33:50.957Z,1020.81
2019-04-14T04:34:51.251Z,1020.78
2019-04-14T04:35:52.115Z,1020.73
2019-04-14T04:36:50.936Z,1020.80
2019-04-14T04:37:51.928Z,1020.80
2019-04-14T04:38:51.046Z,1020.80
2019-04-14T04:39:51.710Z,1020.83
2019-04-14T04:40:50.808Z,1020.85
2019-04-14T04:41:51.593Z,1020.81
2019-04-14T04:42:50.637Z,1020.80
2019-04-14T04:43:51.736Z,1020.80
2019-04-14T04:44:50.998Z,1020.85
2019-04-14T04:45:51.610Z,1020.84
2019-04-14T04:46:50.536Z,1020.83
2019-04-14T04:47:51.284Z,1020.90
2019-04-14T04:49:02.034Z,1020.90
2019-04-14T04:49:51.220Z,1020.89
2019-04-14T04:50:50.381Z,1020.90
2019-04-14T04:51:50.853Z,1020.90
2019-04-14T04:52:50.285Z,1020.89
2019-04-14T04:53:50.490Z,1020.93
2019-04-14T04:54:50.256Z,1020.92
2019-04-14T04:55:50.480Z,1020.90
2019-04-14T04:56:50.159Z,1020.94
2019-04-14T04:57:50.279Z,1020.91
2019-04-14T04:58:50.231Z,1020.91
2019-04-14T04:59:50.048Z,1020.93
2019-04-14T05:00:52.571Z,1021.00
2019-04-14T05:01:49.974Z,1020.96
2019-04-14T05:02:50.583Z,1020.97
2019-04-14T05:03:49.904Z,1020.99
2019-04-14T05:04:50.526Z,1021.04
2019-04-14T05:05:49.867Z,1020.98
2019-04-14T05:06:50.526Z,1020.97
2019-04-14T05:07:49.770Z,1020.99
2019-04-14T05:08:50.248Z,1020.98
2019-04-14T05:09:49.702Z,1020.98
2019-04-14T05:10:50.295Z,1020.98
2019-04-14T05:11:52.612Z,1020.98
2019-04-14T05:12:50.168Z,1021.04
2019-04-14T05:13:49.569Z,1020.98
2019-04-14T05:14:50.144Z,1021.00
2019-04-14T05:15:49.528Z,1021.00
2019-04-14T05:16:50.666Z,1020.95
2019-04-14T05:17:49.587Z,1020.99
2019-04-14T05:18:49.407Z,1021.00
2019-04-14T05:19:49.677Z,1021.00
2019-04-14T05:20:49.376Z,1021.01
2019-04-14T05:21:49.537Z,1021.00
2019-04-14T05:22:49.266Z,1021.05
2019-04-14T05:23:49.516Z,1021.02
2019-04-14T05:24:49.195Z,1021.02
2019-04-14T05:25:49.529Z,1021.02
2019-04-14T05:26:49.133Z,1021.04
2019-04-14T05:27:49.469Z,1021.05
2019-04-14T05:28:49.060Z,1021.05
2019-04-14T05:29:49.386Z,1021.07
2019-04-14T05:30:50.268Z,1021.10
2019-04-14T05:31:49.105Z,1021.07
2019-04-14T05:32:50.030Z,1021.08
2019-04-14T05:33:49.057Z,1021.10
2019-04-14T05:34:50.129Z,1021.14
2019-04-14T05:35:48.950Z,1021.13
2019-04-14T05:36:49.922Z,1021.16
2019-04-14T05:37:48.765Z,1021.14
2019-04-14T05:38:49.578Z,1021.17
2019-04-14T05:39:48.712Z,1021.19
2019-04-14T05:40:49.653Z,1021.18
2019-04-14T05:42:02.594Z,1021.16
2019-04-14T05:42:49.441Z,1021.15
2019-04-14T05:43:53.770Z,1021.17
2019-04-14T05:44:49.444Z,1021.19
2019-04-14T05:45:48.493Z,1021.16
2019-04-14T05:46:49.161Z,1021.19
2019-04-14T05:47:48.421Z,1021.25
2019-04-14T05:48:49.224Z,1021.24
2019-04-14T05:49:51.813Z,1021.30
2019-04-14T05:50:49.025Z,1021.22
2019-04-14T05:51:48.377Z,1021.25
2019-04-14T05:52:49.272Z,1021.26
2019-04-14T05:53:48.241Z,1021.28
2019-04-14T05:54:49.228Z,1021.26
2019-04-14T05:55:48.228Z,1021.27
2019-04-14T05:56:49.311Z,1021.36
2019-04-14T05:57:48.182Z,1021.25
2019-04-14T05:58:49.233Z,1021.22
2019-04-14T05:59:48.404Z,1021.22
2019-04-14T06:00:47.982Z,1021.19
2019-04-14T06:01:48.838Z,1021.22
2019-04-14T06:02:48.508Z,1021.24
2019-04-14T06:03:47.899Z,1021.25
2019-04-14T06:04:48.255Z,1021.23
2019-04-14T06:05:47.820Z,1021.29
2019-04-14T06:06:47.800Z,1021.25
2019-04-14T06:07:47.739Z,1021.31
2019-04-14T06:08:47.708Z,1021.30
2019-04-14T06:09:47.666Z,1021.29
2019-04-14T06:10:47.642Z,1021.33
2019-04-14T06:11:47.627Z,1021.31
2019-04-14T06:12:47.587Z,1021.30
2019-04-14T06:13:47.547Z,1021.32
2019-04-14T06:14:47.503Z,1021.31
2019-04-14T06:15:47.468Z,1021.33
2019-04-14T06:16:47.457Z,1021.30
2019-04-14T06:17:47.410Z,1021.30
2019-04-14T06:18:47.368Z,1021.32
2019-04-14T06:19:47.327Z,1021.24
2019-04-14T06:20:47.308Z,1021.32
2019-04-14T06:21:47.287Z,1021.30
2019-04-14T06:22:47.228Z,1021.27
2019-04-14T06:23:47.195Z,1021.31
2019-04-14T06:24:47.161Z,1021.33
2019-04-14T06:25:47.182Z,1021.30
2019-04-14T06:26:47.118Z,1021.30
2019-04-14T06:27:47.087Z,1021.37
2019-04-14T06:28:47.034Z,1021.33
2019-04-14T06:29:46.999Z,1021.37
2019-04-14T06:30:46.976Z,1021.35
2019-04-14T06:31:46.922Z,1021.41
2019-04-14T06:32:46.929Z,1021.40
2019-04-14T06:33:46.856Z,1021.41
2019-04-14T06:34:46.825Z,1021.43
2019-04-14T06:35:46.790Z,1021.44
2019-04-14T06:36:46.756Z,1021.45
2019-04-14T06:37:46.753Z,1021.47
2019-04-14T06:38:46.709Z,1021.45
2019-04-14T06:39:46.653Z,1021.51
2019-04-14T06:40:46.620Z,1021.46
2019-04-14T06:41:46.583Z,1021.51
2019-04-14T06:42:46.577Z,1021.49
2019-04-14T06:43:48.966Z,1021.50
2019-04-14T06:44:46.487Z,1021.48
2019-04-14T06:45:46.448Z,1021.45
2019-04-14T06:46:46.417Z,1021.50
2019-04-14T06:47:46.457Z,1021.45
2019-04-14T06:48:46.363Z,1021.48
2019-04-14T06:49:49.108Z,1021.53
2019-04-14T06:50:46.614Z,1021.56
2019-04-14T06:51:46.248Z,1021.53
2019-04-14T06:52:46.243Z,1021.55
2019-04-14T06:53:46.180Z,1021.56
2019-04-14T06:54:46.166Z,1021.55
2019-04-14T06:55:46.113Z,1021.54
2019-04-14T06:56:46.086Z,1021.56
2019-04-14T06:57:46.126Z,1021.55
2019-04-14T06:58:46.013Z,1021.53
2019-04-14T06:59:45.983Z,1021.58
2019-04-14T07:00:45.953Z,1021.57
2019-04-14T07:01:45.913Z,1021.54
2019-04-14T07:02:48.054Z,1021.52
2019-04-14T07:03:45.852Z,1021.51
2019-04-14T07:04:45.817Z,1021.51
2019-04-14T07:05:45.790Z,1021.56
2019-04-14T07:06:45.751Z,1021.54
2019-04-14T07:07:56.428Z,1021.52
2019-04-14T07:08:45.676Z,1021.55
2019-04-14T07:09:45.639Z,1021.51
2019-04-14T07:10:45.610Z,1021.55
2019-04-14T07:11:45.571Z,1021.53
2019-04-14T07:12:45.562Z,1021.58
2019-04-14T07:13:47.925Z,1021.57
2019-04-14T07:14:45.471Z,1021.60
2019-04-14T07:15:45.441Z,1021.60
2019-04-14T07:16:45.408Z,1021.59
2019-04-14T07:17:45.394Z,1021.55
2019-04-14T07:18:45.335Z,1021.60
2019-04-14T07:19:45.298Z,1021.62
2019-04-14T07:20:45.276Z,1021.60
2019-04-14T07:21:45.261Z,1021.58
2019-04-14T07:22:45.235Z,1021.61
2019-04-14T07:23:47.285Z,1021.61
2019-04-14T07:24:45.139Z,1021.63
2019-04-14T07:25:45.193Z,1021.61
2019-04-14T07:26:45.077Z,1021.63
2019-04-14T07:27:45.036Z,1021.66
2019-04-14T07:28:56.216Z,1021.66
2019-04-14T07:29:44.973Z,1021.64
2019-04-14T07:30:44.934Z,1021.68
2019-04-14T07:31:44.913Z,1021.65
2019-04-14T07:32:44.868Z,1021.65
2019-04-14T07:33:44.861Z,1021.72
2019-04-14T07:34:44.810Z,1021.73
2019-04-14T07:35:44.774Z,1021.73
2019-04-14T07:36:44.751Z,1021.70
2019-04-14T07:37:45.385Z,1021.71
2019-04-14T07:38:44.759Z,1021.70
2019-04-14T07:39:44.638Z,1021.76
2019-04-14T07:40:44.609Z,1021.76
2019-04-14T07:41:44.571Z,1021.73
2019-04-14T07:42:44.535Z,1021.77
2019-04-14T07:43:44.574Z,1021.79
2019-04-14T07:44:44.468Z,1021.72
2019-04-14T07:45:44.441Z,1021.81
2019-04-14T07:46:44.401Z,1021.77
2019-04-14T07:47:44.374Z,1021.76
2019-04-14T07:48:44.358Z,1021.76
2019-04-14T07:49:44.304Z,1021.78
2019-04-14T07:50:44.262Z,1021.79
2019-04-14T07:51:44.231Z,1021.81
2019-04-14T07:52:44.199Z,1021.82
2019-04-14T07:53:44.186Z,1021.79
2019-04-14T07:54:44.128Z,1021.81
2019-04-14T07:55:44.098Z,1021.81
2019-04-14T07:56:44.061Z,1021.80
2019-04-14T07:57:44.029Z,1021.83
2019-04-14T07:58:44.015Z,1021.86
2019-04-14T07:59:43.968Z,1021.83
2019-04-14T08:00:43.928Z,1021.85
2019-04-14T08:01:43.889Z,1021.83
2019-04-14T08:02:43.863Z,1021.84
2019-04-14T08:03:43.848Z,1021.87
2019-04-14T08:04:43.795Z,1021.92
2019-04-14T08:05:43.755Z,1021.91
2019-04-14T08:06:43.733Z,1021.91
2019-04-14T08:07:43.718Z,1021.90
2019-04-14T08:08:43.693Z,1021.89
2019-04-14T08:09:43.623Z,1021.90
2019-04-14T08:10:43.594Z,1021.94
2019-04-14T08:11:43.560Z,1021.94
2019-04-14T08:12:43.525Z,1021.96
2019-04-14T08:13:43.512Z,1021.92
2019-04-14T08:14:43.453Z,1021.95
2019-04-14T08:15:43.423Z,1021.90
2019-04-14T08:16:43.389Z,1021.93
2019-04-14T08:17:45.288Z,1021.93
2019-04-14T08:18:43.348Z,1021.93
2019-04-14T08:19:43.290Z,1021.94
2019-04-14T08:20:43.263Z,1021.97
2019-04-14T08:21:43.219Z,1021.96
2019-04-14T08:22:43.195Z,1021.98
2019-04-14T08:23:43.160Z,1021.95
2019-04-14T08:24:43.143Z,1021.98
2019-04-14T08:25:43.081Z,1021.97
2019-04-14T08:26:43.050Z,1021.96
2019-04-14T08:27:43.026Z,1021.97
2019-04-14T08:28:42.986Z,1021.97
2019-04-14T08:29:42.985Z,1021.97
2019-04-14T08:30:42.917Z,1021.96
2019-04-14T08:31:42.883Z,1021.98
2019-04-14T08:32:42.857Z,1021.97
2019-04-14T08:33:42.822Z,1022.03
2019-04-14T08:34:42.819Z,1022.01
2019-04-14T08:35:42.751Z,1022.03
2019-04-14T08:36:42.738Z,1022.01
2019-04-14T08:37:42.689Z,1022.00
2019-04-14T08:38:42.648Z,1022.01
2019-04-14T08:39:42.644Z,1022.03
2019-04-14T08:40:42.580Z,1022.05
2019-04-14T08:41:42.550Z,1022.05
2019-04-14T08:42:42.516Z,1022.03
2019-04-14T08:43:42.491Z,1022.05
2019-04-14T08:44:42.482Z,1022.06
2019-04-14T08:45:42.430Z,1022.02
2019-04-14T08:46:42.386Z,1022.00
2019-04-14T08:47:42.350Z,1022.01
2019-04-14T08:48:42.325Z,1022.03
2019-04-14T08:49:42.309Z,1022.01
2019-04-14T08:50:42.261Z,1022.01
2019-04-14T08:51:42.222Z,1022.06
2019-04-14T08:52:42.187Z,1022.02
2019-04-14T08:53:42.156Z,1022.04
2019-04-14T08:54:42.170Z,1022.04
2019-04-14T08:55:42.092Z,1022.06
2019-04-14T08:56:42.104Z,1022.06
2019-04-14T08:57:42.037Z,1022.03
2019-04-14T08:58:42.001Z,1022.02
2019-04-14T08:59:41.994Z,1022.04
2019-04-14T09:00:41.950Z,1022.07
2019-04-14T09:01:41.896Z,1022.05
2019-04-14T09:02:41.863Z,1022.08
2019-04-14T09:03:41.833Z,1022.07
2019-04-14T09:04:41.952Z,1022.06
2019-04-14T09:05:41.768Z,1022.06
2019-04-14T09:06:41.733Z,1022.10
2019-04-14T09:07:41.718Z,1022.07
2019-04-14T09:08:41.667Z,1022.12
2019-04-14T09:09:41.704Z,1022.10
2019-04-14T09:10:41.627Z,1022.15
2019-04-14T09:11:41.568Z,1022.13
2019-04-14T09:12:41.575Z,1022.10
2019-04-14T09:13:41.498Z,1022.10
2019-04-14T09:14:41.486Z,1022.10
2019-04-14T09:15:41.498Z,1022.11
2019-04-14T09:16:41.403Z,1022.11
2019-04-14T09:17:41.366Z,1022.12
2019-04-14T09:18:41.339Z,1022.12
2019-04-14T09:19:41.307Z,1022.14
2019-04-14T09:20:51.715Z,1022.12
2019-04-14T09:21:41.231Z,1022.16
2019-04-14T09:22:41.201Z,1022.16
2019-04-14T09:23:41.181Z,1022.17
2019-04-14T09:24:41.168Z,1022.15
2019-04-14T09:25:41.123Z,1022.14
2019-04-14T09:26:41.067Z,1022.15
2019-04-14T09:27:41.031Z,1022.09
2019-04-14T09:28:41.010Z,1022.12
2019-04-14T09:29:41.013Z,1022.15
2019-04-14T09:30:40.958Z,1022.16
2019-04-14T09:31:40.911Z,1022.14
2019-04-14T09:32:40.872Z,1022.16
2019-04-14T09:33:40.843Z,1022.11
2019-04-14T09:34:40.843Z,1022.16
2019-04-14T09:35:40.884Z,1022.20
2019-04-14T09:36:40.741Z,1022.19
2019-04-14T09:37:40.721Z,1022.25
2019-04-14T09:38:40.682Z,1022.19
2019-04-14T09:39:40.657Z,1022.17
2019-04-14T09:40:40.644Z,1022.17
2019-04-14T09:41:40.599Z,1022.22
2019-04-14T09:42:40.548Z,1022.24
2019-04-14T09:43:40.542Z,1022.23
2019-04-14T09:44:40.482Z,1022.19
2019-04-14T09:45:40.474Z,1022.22
2019-04-14T09:46:40.427Z,1022.18
2019-04-14T09:47:40.436Z,1022.23
2019-04-14T09:48:42.793Z,1022.18
2019-04-14T09:49:40.317Z,1022.20
2019-04-14T09:50:40.322Z,1022.26
2019-04-14T09:51:40.270Z,1022.22
2019-04-14T09:52:40.235Z,1022.22
2019-04-14T09:53:40.186Z,1022.24
2019-04-14T09:54:40.170Z,1022.25
2019-04-14T09:55:40.147Z,1022.24
2019-04-14T09:56:40.093Z,1022.23
2019-04-14T09:57:40.051Z,1022.18
2019-04-14T09:58:40.054Z,1022.21
2019-04-14T09:59:39.998Z,1022.25
2019-04-14T10:00:40.000Z,1022.22
2019-04-14T10:01:39.926Z,1022.21
2019-04-14T10:02:39.895Z,1022.20
2019-04-14T10:03:39.871Z,1022.24
2019-04-14T10:04:39.842Z,1022.22
2019-04-14T10:05:39.828Z,1022.27
2019-04-14T10:06:40.961Z,1022.24
2019-04-14T10:07:39.734Z,1022.26
2019-04-14T10:08:39.699Z,1022.31
2019-04-14T10:09:39.683Z,1022.31
2019-04-14T10:10:39.931Z,1022.29
2019-04-14T10:11:48.481Z,1022.34
2019-04-14T10:12:39.605Z,1022.29
2019-04-14T10:13:39.539Z,1022.30
2019-04-14T10:14:39.508Z,1022.33
2019-04-14T10:15:39.506Z,1022.32
2019-04-14T10:16:39.446Z,1022.34
2019-04-14T10:17:39.419Z,1022.35
2019-04-14T10:18:39.385Z,1022.36
2019-04-14T10:19:39.355Z,1022.33
2019-04-14T10:20:39.330Z,1022.38
2019-04-14T10:21:39.326Z,1022.34
2019-04-14T10:22:39.256Z,1022.38
2019-04-14T10:23:39.615Z,1022.38
2019-04-14T10:24:39.193Z,1022.41
2019-04-14T10:25:39.165Z,1022.39
2019-04-14T10:26:39.159Z,1022.39
2019-04-14T10:27:39.098Z,1022.39
2019-04-14T10:28:39.070Z,1022.40
2019-04-14T10:29:39.033Z,1022.39
2019-04-14T10:30:39.011Z,1022.41
2019-04-14T10:31:38.997Z,1022.39
2019-04-14T10:32:38.992Z,1022.34
2019-04-14T10:33:38.941Z,1022.42
2019-04-14T10:34:38.883Z,1022.39
2019-04-14T10:35:38.865Z,1022.40
2019-04-14T10:36:38.844Z,1022.43
2019-04-14T10:37:38.784Z,1022.40
2019-04-14T10:38:38.750Z,1022.44
2019-04-14T10:39:38.768Z,1022.41
2019-04-14T10:40:38.710Z,1022.45
2019-04-14T10:41:38.776Z,1022.41
2019-04-14T10:42:38.636Z,1022.43
2019-04-14T10:43:38.623Z,1022.43
2019-04-14T10:44:38.568Z,1022.41
2019-04-14T10:45:38.552Z,1022.39
2019-04-14T10:46:38.547Z,1022.42
2019-04-14T10:47:38.467Z,1022.42
2019-04-14T10:48:38.446Z,1022.41
2019-04-14T10:49:38.400Z,1022.44
2019-04-14T10:50:38.373Z,1022.43
2019-04-14T10:51:38.410Z,1022.39
2019-04-14T10:52:38.303Z,1022.34
2019-04-14T10:53:38.274Z,1022.40
2019-04-14T10:54:38.243Z,1022.40
2019-04-14T10:55:38.211Z,1022.39
2019-04-14T10:56:38.234Z,1022.36
2019-04-14T10:57:38.146Z,1022.36
2019-04-14T10:58:38.116Z,1022.37
2019-04-14T10:59:38.084Z,1022.33
2019-04-14T11:00:38.049Z,1022.39
2019-04-14T11:01:38.041Z,1022.36
2019-04-14T11:02:38.022Z,1022.36
2019-04-14T11:03:37.953Z,1022.42
2019-04-14T11:04:37.921Z,1022.38
2019-04-14T11:05:37.895Z,1022.36
2019-04-14T11:06:37.893Z,1022.40
2019-04-14T11:07:37.820Z,1022.40
2019-04-14T11:08:37.792Z,1022.42
2019-04-14T11:09:37.761Z,1022.40
2019-04-14T11:10:37.733Z,1022.42
2019-04-14T11:11:37.722Z,1022.45
2019-04-14T11:12:37.660Z,1022.42
2019-04-14T11:13:37.630Z,1022.44
2019-04-14T11:14:37.595Z,1022.43
2019-04-14T11:15:37.563Z,1022.43
2019-04-14T11:16:37.560Z,1022.39
2019-04-14T11:17:37.500Z,1022.39
2019-04-14T11:18:37.484Z,1022.48
2019-04-14T11:19:37.447Z,1022.44
2019-04-14T11:20:37.454Z,1022.46
2019-04-14T11:21:42.723Z,1022.41
2019-04-14T11:22:37.347Z,1022.45
2019-04-14T11:23:37.307Z,1022.45
2019-04-14T11:24:37.297Z,1022.43
2019-04-14T11:25:37.244Z,1022.43
2019-04-14T11:26:37.218Z,1022.42
2019-04-14T11:27:37.214Z,1022.42
2019-04-14T11:28:37.150Z,1022.36
2019-04-14T11:29:37.122Z,1022.40
2019-04-14T11:30:37.087Z,1022.37
2019-04-14T11:31:44.115Z,1022.38
2019-04-14T11:32:37.040Z,1022.37
2019-04-14T11:33:36.983Z,1022.43
2019-04-14T11:34:36.984Z,1022.45
2019-04-14T11:35:36.928Z,1022.42
2019-04-14T11:36:36.919Z,1022.38
2019-04-14T11:37:36.879Z,1022.42
2019-04-14T11:38:36.848Z,1022.37
2019-04-14T11:39:36.800Z,1022.43
2019-04-14T11:40:36.812Z,1022.40
2019-04-14T11:41:36.775Z,1022.39
2019-04-14T11:42:36.768Z,1022.43
2019-04-14T11:43:36.664Z,1022.42
2019-04-14T11:44:36.630Z,1022.39
2019-04-14T11:45:36.614Z,1022.39
2019-04-14T11:46:36.575Z,1022.36
2019-04-14T11:47:36.556Z,1022.37
2019-04-14T11:48:36.504Z,1022.39
2019-04-14T11:49:36.470Z,1022.36
2019-04-14T11:50:36.461Z,1022.38
2019-04-14T11:51:36.436Z,1022.35
2019-04-14T11:52:36.395Z,1022.33
2019-04-14T11:53:36.338Z,1022.36
2019-04-14T11:54:36.320Z,1022.39
2019-04-14T11:55:36.286Z,1022.32
2019-04-14T11:56:36.257Z,1022.40
2019-04-14T11:57:36.237Z,1022.33
2019-04-14T11:58:37.217Z,1022.38
2019-04-14T11:59:36.193Z,1022.38
2019-04-14T12:00:36.128Z,1022.38
2019-04-14T12:01:36.114Z,1022.38
2019-04-14T12:02:36.087Z,1022.36
2019-04-14T12:03:36.020Z,1022.40
2019-04-14T12:04:36.012Z,1022.36
2019-04-14T12:05:35.955Z,1022.36
2019-04-14T12:06:35.938Z,1022.43
2019-04-14T12:07:35.917Z,1022.40
2019-04-14T12:08:35.912Z,1022.46
2019-04-14T12:09:35.828Z,1022.47
2019-04-14T12:10:35.799Z,1022.41
2019-04-14T12:11:35.769Z,1022.44
2019-04-14T12:12:35.775Z,1022.42
2019-04-14T12:13:35.706Z,1022.41
2019-04-14T12:14:35.671Z,1022.39
2019-04-14T12:15:35.640Z,1022.38
2019-04-14T12:16:35.610Z,1022.41
2019-04-14T12:17:35.573Z,1022.42
2019-04-14T12:18:35.581Z,1022.41
2019-04-14T12:19:35.512Z,1022.39
2019-04-14T12:20:35.511Z,1022.44
2019-04-14T12:21:35.451Z,1022.44
2019-04-14T12:22:35.418Z,1022.47
2019-04-14T12:23:35.413Z,1022.43
2019-04-14T12:24:35.363Z,1022.43